createdAt,value
2023-04-09T00:00:17.117Z,45.23
2023-04-09T00:02:48.588Z,46.53
2023-04-09T00:05:19.984Z,35.73
2023-04-09T00:07:51.403Z,43.47
2023-04-09T00:10:23.128Z,37.90
2023-04-09T00:12:54.490Z,43.70
2023-04-09T00:15:31.151Z,41.90
2023-04-09T00:18:03.408Z,44.53
2023-04-09T00:20:35.084Z,44.97
2023-04-09T00:23:06.562Z,37.20
2023-04-09T00:25:38.004Z,37.80
2023-04-09T00:28:09.421Z,43.23
2023-04-09T00:30:40.770Z,40.00
2023-04-09T00:33:12.110Z,45.53
2023-04-09T00:35:43.533Z,37.83
2023-04-09T00:38:14.877Z,42.47
2023-04-09T00:40:49.843Z,42.10
2023-04-09T00:43:21.757Z,37.37
2023-04-09T00:45:53.276Z,42.83
2023-04-09T00:48:24.855Z,43.43
2023-04-09T00:50:56.519Z,47.37
2023-04-09T00:53:28.428Z,39.67
2023-04-09T00:56:00.157Z,35.10
2023-04-09T00:58:31.661Z,36.13
2023-04-09T01:01:03.636Z,41.00
2023-04-09T01:03:35.868Z,34.63
2023-04-09T01:06:27.851Z,36.37
2023-04-09T01:09:06.275Z,38.17
2023-04-09T01:11:40.314Z,38.23
2023-04-09T01:14:27.478Z,37.13
2023-04-09T01:17:06.191Z,33.40
2023-04-09T01:20:01.683Z,31.77
2023-04-09T01:23:01.075Z,35.13
2023-04-09T01:25:44.885Z,31.77
2023-04-09T01:28:19.603Z,29.67
2023-04-09T01:30:56.077Z,31.13
2023-04-09T01:33:30.860Z,34.43
2023-04-09T01:36:04.525Z,29.50
2023-04-09T01:38:37.677Z,31.03
2023-04-09T01:41:17.252Z,33.87
2023-04-09T01:43:52.279Z,32.73
2023-04-09T01:46:25.259Z,31.17
2023-04-09T01:48:57.209Z,33.17
2023-04-09T01:51:29.716Z,33.33
2023-04-09T01:54:01.193Z,35.73
2023-04-09T01:56:48.191Z,29.70
2023-04-09T01:59:19.548Z,35.03
2023-04-09T02:02:00.290Z,36.07
2023-04-09T02:04:42.924Z,39.73
2023-04-09T02:07:50.754Z,33.70
2023-04-09T02:10:26.819Z,36.60
2023-04-09T02:13:01.370Z,32.95
2023-04-09T02:15:36.498Z,38.43
2023-04-09T02:18:21.436Z,35.90
2023-04-09T02:20:53.955Z,34.63
2023-04-09T02:23:27.295Z,40.03
2023-04-09T02:25:58.909Z,36.93
2023-04-09T02:28:30.237Z,33.90
2023-04-09T02:31:01.552Z,37.27
2023-04-09T02:33:32.991Z,35.93
2023-04-09T02:36:05.260Z,37.33
2023-04-09T02:38:36.645Z,37.07
2023-04-09T02:41:08.241Z,34.43
2023-04-09T02:43:39.630Z,30.67
2023-04-09T02:46:11.044Z,35.23
2023-04-09T02:48:42.393Z,30.77
2023-04-09T02:51:13.712Z,32.63
2023-04-09T02:53:45.562Z,32.03
2023-04-09T02:56:16.906Z,31.27
2023-04-09T02:58:51.746Z,32.27
2023-04-09T03:01:23.575Z,29.80
2023-04-09T03:03:55.174Z,31.60
2023-04-09T03:06:26.995Z,31.37
2023-04-09T03:08:58.348Z,28.70
2023-04-09T03:11:29.760Z,35.30
2023-04-09T03:14:01.074Z,31.17
2023-04-09T03:16:32.438Z,27.97
2023-04-09T03:19:03.905Z,30.67
2023-04-09T03:21:35.521Z,31.70
2023-04-09T03:24:07.240Z,26.40
2023-04-09T03:26:38.616Z,29.20
2023-04-09T03:29:10.184Z,29.47
2023-04-09T03:31:41.567Z,24.03
2023-04-09T03:34:12.983Z,29.87
2023-04-09T03:36:44.342Z,29.97
2023-04-09T03:39:15.833Z,30.50
2023-04-09T03:41:47.271Z,32.13
2023-04-09T03:44:18.666Z,30.80
2023-04-09T03:46:50.447Z,26.00
2023-04-09T03:49:21.932Z,28.63
2023-04-09T03:51:53.413Z,28.83
2023-04-09T03:54:24.746Z,31.13
2023-04-09T03:56:56.421Z,29.47
2023-04-09T03:59:27.833Z,29.10
2023-04-09T04:01:59.282Z,28.03
2023-04-09T04:04:30.894Z,28.20
2023-04-09T04:07:03.813Z,28.47
2023-04-09T04:09:35.404Z,27.37
2023-04-09T04:12:06.937Z,25.87
2023-04-09T04:14:38.312Z,28.20
2023-04-09T04:17:10.532Z,29.97
2023-04-09T04:19:42.015Z,27.77
2023-04-09T04:22:13.425Z,25.73
2023-04-09T04:24:44.730Z,29.87
2023-04-09T04:27:16.228Z,31.23
2023-04-09T04:29:47.609Z,28.77
2023-04-09T04:32:18.998Z,31.07
2023-04-09T04:34:51.486Z,28.50
2023-04-09T04:37:22.913Z,29.70
2023-04-09T04:39:54.378Z,30.30
2023-04-09T04:42:25.806Z,29.67
2023-04-09T04:44:57.483Z,29.83
2023-04-09T04:47:28.901Z,26.33
2023-04-09T04:50:00.401Z,28.83
2023-04-09T04:52:31.706Z,35.13
2023-04-09T04:55:03.179Z,26.63
2023-04-09T04:57:34.510Z,32.83
2023-04-09T05:00:06.598Z,25.50
2023-04-09T05:02:38.128Z,27.67
2023-04-09T05:05:09.869Z,29.63
2023-04-09T05:07:41.604Z,29.03
2023-04-09T05:10:13.276Z,28.07
2023-04-09T05:12:44.659Z,29.07
2023-04-09T05:15:17.239Z,30.13
2023-04-09T05:17:48.950Z,29.97
2023-04-09T05:20:20.493Z,31.63
2023-04-09T05:22:52.345Z,29.10
2023-04-09T05:25:23.750Z,34.73
2023-04-09T05:27:56.144Z,30.47
2023-04-09T05:30:27.507Z,30.77
2023-04-09T05:32:59.440Z,29.10
2023-04-09T05:35:30.914Z,30.37
2023-04-09T05:38:02.314Z,31.17
2023-04-09T05:40:34.102Z,34.03
2023-04-09T05:43:06.078Z,29.03
2023-04-09T05:45:38.085Z,33.13
2023-04-09T05:48:10.576Z,32.87
2023-04-09T05:50:53.893Z,34.70
2023-04-09T05:53:26.403Z,30.33
2023-04-09T05:55:57.868Z,33.77
2023-04-09T05:58:29.643Z,35.47
2023-04-09T06:01:01.004Z,40.00
2023-04-09T06:03:32.462Z,33.87
2023-04-09T06:06:04.286Z,42.33
2023-04-09T06:08:35.815Z,37.47
2023-04-09T06:11:10.725Z,39.40
2023-04-09T06:13:42.071Z,41.17
2023-04-09T06:16:13.570Z,35.13
2023-04-09T06:18:46.817Z,38.27
2023-04-09T06:21:18.175Z,40.53
2023-04-09T06:23:50.140Z,36.10
2023-04-09T06:26:21.909Z,33.43
2023-04-09T06:28:54.026Z,33.30
2023-04-09T06:31:25.696Z,32.43
2023-04-09T06:33:57.351Z,32.30
2023-04-09T06:36:28.824Z,32.33
2023-04-09T06:39:00.268Z,33.67
2023-04-09T06:41:32.565Z,31.77
2023-04-09T06:44:04.199Z,35.20
2023-04-09T06:46:35.617Z,34.90
2023-04-09T06:49:07.060Z,32.63
2023-04-09T06:51:38.551Z,37.13
2023-04-09T06:54:10.211Z,32.83
2023-04-09T06:56:41.519Z,28.27
2023-04-09T06:59:13.753Z,34.77
2023-04-09T07:01:45.551Z,36.00
2023-04-09T07:04:17.159Z,33.97
2023-04-09T07:06:48.627Z,30.40
2023-04-09T07:09:20.394Z,30.57
2023-04-09T07:11:51.851Z,31.50
2023-04-09T07:14:23.207Z,30.00
2023-04-09T07:16:54.542Z,28.10
2023-04-09T07:19:26.826Z,19.90
2023-04-09T07:21:58.247Z,21.87
2023-04-09T07:24:29.665Z,27.73
2023-04-09T07:27:04.390Z,23.47
2023-04-09T07:29:36.694Z,26.03
2023-04-09T07:32:08.068Z,26.60
2023-04-09T07:34:40.609Z,24.90
2023-04-09T07:37:12.624Z,25.53
2023-04-09T07:39:44.341Z,26.17
2023-04-09T07:42:16.029Z,23.23
2023-04-09T07:44:47.505Z,21.10
2023-04-09T07:47:18.913Z,23.50
2023-04-09T07:49:50.457Z,24.23
2023-04-09T07:52:21.872Z,23.67
2023-04-09T07:54:53.234Z,21.43
2023-04-09T07:57:24.694Z,26.17
2023-04-09T07:59:56.793Z,24.13
2023-04-09T08:02:28.275Z,21.50
2023-04-09T08:04:59.987Z,23.00
2023-04-09T08:07:31.553Z,24.23
2023-04-09T08:10:03.061Z,21.73
2023-04-09T08:12:34.436Z,23.80
2023-04-09T08:15:06.484Z,23.97
2023-04-09T08:17:37.983Z,20.33
2023-04-09T08:20:10.384Z,23.07
2023-04-09T08:22:42.345Z,21.37
2023-04-09T08:25:14.797Z,18.70
2023-04-09T08:27:46.419Z,22.47
2023-04-09T08:30:18.888Z,22.17
2023-04-09T08:32:50.439Z,26.90
2023-04-09T08:35:21.824Z,26.00
2023-04-09T08:37:53.441Z,24.00
2023-04-09T08:40:24.964Z,21.13
2023-04-09T08:42:57.027Z,20.73
2023-04-09T08:45:28.456Z,20.40
2023-04-09T08:48:00.744Z,20.17
2023-04-09T08:50:34.314Z,21.53
2023-04-09T08:53:08.122Z,22.10
2023-04-09T08:55:40.019Z,24.77
2023-04-09T08:58:11.507Z,20.47
2023-04-09T09:00:42.937Z,18.77
2023-04-09T09:03:14.505Z,23.77
2023-04-09T09:05:46.380Z,20.77
2023-04-09T09:08:25.396Z,20.87
2023-04-09T09:10:57.369Z,20.97
2023-04-09T09:13:28.739Z,20.00
2023-04-09T09:16:14.377Z,20.67
2023-04-09T09:18:46.150Z,18.00
2023-04-09T09:21:19.641Z,18.07
2023-04-09T09:23:51.262Z,20.80
2023-04-09T09:26:30.099Z,19.10
2023-04-09T09:29:04.128Z,18.50
2023-04-09T09:31:50.087Z,19.53
2023-04-09T09:34:24.573Z,18.60
2023-04-09T09:36:56.152Z,14.93
2023-04-09T09:39:43.815Z,18.13
2023-04-09T09:42:15.666Z,17.20
2023-04-09T09:44:47.882Z,15.40
2023-04-09T09:47:22.020Z,18.33
2023-04-09T09:49:54.570Z,19.90
2023-04-09T09:52:30.181Z,18.43
2023-04-09T09:55:05.701Z,18.30
2023-04-09T09:57:39.467Z,21.58
2023-04-09T10:00:13.425Z,21.30
2023-04-09T10:02:51.229Z,19.07
2023-04-09T10:05:26.775Z,18.53
2023-04-09T10:08:00.361Z,16.85
2023-04-09T10:10:33.523Z,27.13
2023-04-09T10:13:07.624Z,20.00
2023-04-09T10:15:40.093Z,17.40
2023-04-09T10:18:12.004Z,17.77
2023-04-09T10:20:52.092Z,23.17
2023-04-09T10:23:49.404Z,17.93
2023-04-09T10:26:22.205Z,16.90
2023-04-09T10:29:08.253Z,19.80
2023-04-09T10:31:48.455Z,17.95
2023-04-09T10:34:24.591Z,19.00
2023-04-09T10:36:57.792Z,20.90
2023-04-09T10:39:32.037Z,18.97
2023-04-09T10:42:11.419Z,17.93
2023-04-09T10:44:42.865Z,16.97
2023-04-09T10:47:32.590Z,16.27
2023-04-09T10:50:21.221Z,15.63
2023-04-09T10:53:00.664Z,17.90
2023-04-09T10:55:35.280Z,19.47
2023-04-09T10:58:13.262Z,15.13
2023-04-09T11:00:48.852Z,22.50
2023-04-09T11:03:26.200Z,20.17
2023-04-09T11:06:05.729Z,17.60
2023-04-09T11:08:38.544Z,14.57
2023-04-09T11:11:11.554Z,14.03
2023-04-09T11:13:43.210Z,14.77
2023-04-09T11:16:23.269Z,17.57
2023-04-09T11:18:57.402Z,14.77
2023-04-09T11:21:28.817Z,15.17
2023-04-09T11:24:00.262Z,19.00
2023-04-09T11:26:36.198Z,16.17
2023-04-09T11:29:09.104Z,20.20
2023-04-09T11:31:44.239Z,15.83
2023-04-09T11:34:15.883Z,16.90
2023-04-09T11:36:49.451Z,16.93
2023-04-09T11:39:21.053Z,16.47
2023-04-09T11:41:52.972Z,14.33
2023-04-09T11:44:24.440Z,21.73
2023-04-09T11:46:56.316Z,16.10
2023-04-09T11:49:27.848Z,15.13
2023-04-09T11:52:01.797Z,14.67
2023-04-09T11:54:34.268Z,15.90
2023-04-09T11:57:06.725Z,18.57
2023-04-09T11:59:39.620Z,36.13
2023-04-09T12:02:11.030Z,15.20
2023-04-09T12:04:50.641Z,19.67
2023-04-09T12:07:22.170Z,15.47
2023-04-09T12:09:53.661Z,16.47
2023-04-09T12:12:25.726Z,16.03
2023-04-09T12:14:58.882Z,17.20
2023-04-09T12:17:32.508Z,16.60
2023-04-09T12:20:04.175Z,14.80
2023-04-09T12:22:38.539Z,18.27
2023-04-09T12:25:09.886Z,16.00
2023-04-09T12:27:41.602Z,16.50
2023-04-09T12:30:13.079Z,13.53
2023-04-09T12:32:45.922Z,19.03
2023-04-09T12:35:17.564Z,14.47
2023-04-09T12:37:50.717Z,16.23
2023-04-09T12:40:22.970Z,14.07
2023-04-09T12:42:54.474Z,16.63
2023-04-09T12:45:26.227Z,17.67
2023-04-09T12:47:58.146Z,18.60
2023-04-09T12:50:29.676Z,15.20
2023-04-09T12:53:01.336Z,15.80
2023-04-09T12:55:32.899Z,17.10
2023-04-09T12:58:04.316Z,20.90
2023-04-09T13:00:35.849Z,19.93
2023-04-09T13:03:07.502Z,20.47
2023-04-09T13:05:38.986Z,20.70
2023-04-09T13:08:10.445Z,18.13
2023-04-09T13:10:42.244Z,15.67
2023-04-09T13:13:13.853Z,13.97
2023-04-09T13:15:45.291Z,17.97
2023-04-09T13:18:16.915Z,17.30
2023-04-09T13:20:48.342Z,18.40
2023-04-09T13:23:19.836Z,17.40
2023-04-09T13:25:52.416Z,15.67
2023-04-09T13:28:23.875Z,16.97
2023-04-09T13:30:55.595Z,16.73
2023-04-09T13:33:26.985Z,18.47
2023-04-09T13:35:58.648Z,15.70
2023-04-09T13:38:30.045Z,14.77
2023-04-09T13:41:01.629Z,17.13
2023-04-09T13:43:33.013Z,13.90
2023-04-09T13:46:04.919Z,15.30
2023-04-09T13:48:36.433Z,17.70
2023-04-09T13:51:08.157Z,14.47
2023-04-09T13:53:39.602Z,17.90
2023-04-09T13:56:11.059Z,15.03
2023-04-09T13:58:43.670Z,15.23
2023-04-09T14:01:15.740Z,16.83
2023-04-09T14:03:47.360Z,21.20
2023-04-09T14:06:19.862Z,15.40
2023-04-09T14:08:51.489Z,14.20
2023-04-09T14:11:23.125Z,16.93
2023-04-09T14:13:55.702Z,16.00
2023-04-09T14:16:28.250Z,19.50
2023-04-09T14:18:59.887Z,13.57
2023-04-09T14:21:31.902Z,15.60
2023-04-09T14:24:03.347Z,13.17
2023-04-09T14:26:34.716Z,14.40
2023-04-09T14:29:06.485Z,14.13
2023-04-09T14:31:37.891Z,13.40
2023-04-09T14:34:09.337Z,12.83
2023-04-09T14:36:40.754Z,15.07
2023-04-09T14:39:12.229Z,18.50
2023-04-09T14:41:43.878Z,13.70
2023-04-09T14:44:15.513Z,14.73
2023-04-09T14:46:46.974Z,13.77
2023-04-09T14:49:18.392Z,11.30
2023-04-09T14:51:49.994Z,12.67
2023-04-09T14:54:22.371Z,15.30
2023-04-09T14:56:53.730Z,13.60
2023-04-09T14:59:26.051Z,12.30
2023-04-09T15:01:57.542Z,13.50
2023-04-09T15:04:29.166Z,11.90
2023-04-09T15:07:00.989Z,12.37
2023-04-09T15:09:34.001Z,13.03
2023-04-09T15:12:05.485Z,12.80
2023-04-09T15:14:36.881Z,12.57
2023-04-09T15:17:08.500Z,12.83
2023-04-09T15:19:39.900Z,11.03
2023-04-09T15:22:11.335Z,28.70
2023-04-09T15:24:42.969Z,14.73
2023-04-09T15:27:14.449Z,13.23
2023-04-09T15:29:45.990Z,14.97
2023-04-09T15:32:17.535Z,15.93
2023-04-09T15:34:48.985Z,13.23
2023-04-09T15:37:20.463Z,11.63
2023-04-09T15:39:52.034Z,11.53
2023-04-09T15:42:24.448Z,13.63
2023-04-09T15:44:56.137Z,11.27
2023-04-09T15:47:27.579Z,11.93
2023-04-09T15:49:59.193Z,10.63
2023-04-09T15:52:30.708Z,14.00
2023-04-09T15:55:02.235Z,11.17
2023-04-09T15:57:33.635Z,11.93
2023-04-09T16:00:08.169Z,13.93
2023-04-09T16:02:41.012Z,12.17
2023-04-09T16:05:12.585Z,13.27
2023-04-09T16:07:44.150Z,9.30
2023-04-09T16:10:15.732Z,13.23
2023-04-09T16:12:47.376Z,11.47
2023-04-09T16:15:18.932Z,14.67
2023-04-09T16:17:50.562Z,12.03
2023-04-09T16:20:22.069Z,12.50
2023-04-09T16:22:53.641Z,10.03
2023-04-09T16:25:25.233Z,10.10
2023-04-09T16:27:57.089Z,9.93
2023-04-09T16:30:29.593Z,13.73
2023-04-09T16:33:02.233Z,14.13
2023-04-09T16:35:38.871Z,14.27
2023-04-09T16:38:11.704Z,16.67
2023-04-09T16:40:43.689Z,17.13
2023-04-09T16:43:15.343Z,15.60
2023-04-09T16:45:47.906Z,19.87
2023-04-09T16:48:19.594Z,16.53
2023-04-09T16:50:51.265Z,14.67
2023-04-09T16:53:22.647Z,15.57
2023-04-09T16:55:54.040Z,19.10
2023-04-09T16:58:25.378Z,15.53
2023-04-09T17:00:57.362Z,16.43
2023-04-09T17:03:28.866Z,14.50
2023-04-09T17:06:00.575Z,16.07
2023-04-09T17:08:32.462Z,19.63
2023-04-09T17:11:03.997Z,18.70
2023-04-09T17:13:36.095Z,19.07
2023-04-09T17:16:08.069Z,18.77
2023-04-09T17:18:39.539Z,19.93
2023-04-09T17:21:12.308Z,16.70
2023-04-09T17:23:44.163Z,18.33
2023-04-09T17:26:15.523Z,18.20
2023-04-09T17:28:47.146Z,17.30
2023-04-09T17:31:19.393Z,18.17
2023-04-09T17:33:51.844Z,19.10
2023-04-09T17:36:23.231Z,20.40
2023-04-09T17:38:56.735Z,16.47
2023-04-09T17:41:28.273Z,16.47
2023-04-09T17:43:59.734Z,16.40
2023-04-09T17:46:31.110Z,17.93
2023-04-09T17:49:02.530Z,21.63
2023-04-09T17:51:33.919Z,16.13
2023-04-09T17:54:05.419Z,16.80
2023-04-09T17:56:39.037Z,18.87
2023-04-09T17:59:13.362Z,18.07
2023-04-09T18:01:44.794Z,20.60
2023-04-09T18:04:16.655Z,23.60
2023-04-09T18:06:50.786Z,19.40
2023-04-09T18:09:22.394Z,16.27
2023-04-09T18:11:56.320Z,19.63
2023-04-09T18:14:27.951Z,18.07
2023-04-09T18:16:59.808Z,16.53
2023-04-09T18:19:31.566Z,20.03
2023-04-09T18:22:03.036Z,20.63
2023-04-09T18:24:34.999Z,19.83
2023-04-09T18:27:06.534Z,19.33
2023-04-09T18:29:37.930Z,21.97
2023-04-09T18:32:09.589Z,22.93
2023-04-09T18:34:41.030Z,22.97
2023-04-09T18:37:12.599Z,21.20
2023-04-09T18:39:44.650Z,22.63
2023-04-09T18:42:16.431Z,23.70
2023-04-09T18:44:47.875Z,28.43
2023-04-09T18:47:19.636Z,23.67
2023-04-09T18:49:51.755Z,22.87
2023-04-09T18:52:23.171Z,24.23
2023-04-09T18:54:54.662Z,21.70
2023-04-09T18:57:26.289Z,21.77
2023-04-09T18:59:57.679Z,24.50
2023-04-09T19:02:29.296Z,21.83
2023-04-09T19:05:02.252Z,26.53
2023-04-09T19:07:34.022Z,19.10
2023-04-09T19:10:05.805Z,21.63
2023-04-09T19:12:37.764Z,21.37
2023-04-09T19:15:09.933Z,27.57
2023-04-09T19:17:41.363Z,21.67
2023-04-09T19:20:13.991Z,20.47
2023-04-09T19:22:49.779Z,25.33
2023-04-09T19:25:23.006Z,22.45
2023-04-09T19:27:54.600Z,22.83
2023-04-09T19:30:26.261Z,24.57
2023-04-09T19:32:57.955Z,23.23
2023-04-09T19:35:29.816Z,25.17
2023-04-09T19:38:04.659Z,26.30
2023-04-09T19:40:36.491Z,29.10
2023-04-09T19:43:08.073Z,25.67
2023-04-09T19:45:40.840Z,24.63
2023-04-09T19:48:13.024Z,31.57
2023-04-09T19:50:46.331Z,27.70
2023-04-09T19:53:18.437Z,27.80
2023-04-09T19:55:50.122Z,29.80
2023-04-09T19:58:21.554Z,29.17
2023-04-09T20:00:53.743Z,29.03
2023-04-09T20:03:25.432Z,32.97
2023-04-09T20:05:56.960Z,30.97
2023-04-09T20:08:29.428Z,32.97
2023-04-09T20:11:01.964Z,32.93
2023-04-09T20:13:33.501Z,30.93
2023-04-09T20:16:05.730Z,28.03
2023-04-09T20:18:37.044Z,31.00
2023-04-09T20:21:08.752Z,29.90
2023-04-09T20:23:41.456Z,26.17
2023-04-09T20:26:13.636Z,27.70
2023-04-09T20:28:47.471Z,26.07
2023-04-09T20:31:19.138Z,26.37
2023-04-09T20:33:50.559Z,30.13
2023-04-09T20:36:22.185Z,30.00
2023-04-09T20:38:54.394Z,26.87
2023-04-09T20:41:26.395Z,31.13
2023-04-09T20:43:58.081Z,25.53
2023-04-09T20:46:29.538Z,29.93
2023-04-09T20:49:01.548Z,29.13
2023-04-09T20:51:33.277Z,23.93
2023-04-09T20:54:04.729Z,26.30
2023-04-09T20:56:36.347Z,26.70
2023-04-09T20:59:08.393Z,26.83
2023-04-09T21:01:40.505Z,23.67
2023-04-09T21:04:12.949Z,27.03
2023-04-09T21:06:44.746Z,24.20
2023-04-09T21:09:16.162Z,26.10
2023-04-09T21:11:47.653Z,23.73
2023-04-09T21:14:19.404Z,26.80
2023-04-09T21:16:52.242Z,25.07
2023-04-09T21:19:26.349Z,24.90
2023-04-09T21:21:57.782Z,30.23
2023-04-09T21:24:33.734Z,29.30
2023-04-09T21:27:07.318Z,29.08
2023-04-09T21:29:39.085Z,29.10
2023-04-09T21:32:12.075Z,26.00
2023-04-09T21:34:43.492Z,26.00
2023-04-09T21:37:14.866Z,27.90
2023-04-09T21:39:48.137Z,33.47
2023-04-09T21:42:19.504Z,26.70
2023-04-09T21:44:51.426Z,28.97
2023-04-09T21:47:23.647Z,27.97
2023-04-09T21:49:55.658Z,29.23
2023-04-09T21:52:27.180Z,30.40
2023-04-09T21:54:58.874Z,28.77
2023-04-09T21:57:30.534Z,29.13
2023-04-09T22:00:02.290Z,33.93
2023-04-09T22:02:34.071Z,32.87
2023-04-09T22:05:06.173Z,37.10
2023-04-09T22:07:39.733Z,34.40
2023-04-09T22:10:11.284Z,32.20
2023-04-09T22:12:42.985Z,33.90
2023-04-09T22:15:15.355Z,35.63
2023-04-09T22:17:47.340Z,35.13
2023-04-09T22:20:18.788Z,33.30
2023-04-09T22:22:50.334Z,32.43
2023-04-09T22:25:22.176Z,35.43
2023-04-09T22:27:53.858Z,31.83
2023-04-09T22:30:25.855Z,36.00
2023-04-09T22:32:57.328Z,32.50
2023-04-09T22:35:28.871Z,31.87
2023-04-09T22:38:00.249Z,29.60
2023-04-09T22:40:31.736Z,28.97
2023-04-09T22:43:03.206Z,29.60
2023-04-09T22:45:34.572Z,31.20
2023-04-09T22:48:07.624Z,29.50
2023-04-09T22:50:38.956Z,33.17
2023-04-09T22:53:10.246Z,31.03
2023-04-09T22:55:41.867Z,31.00
2023-04-09T22:58:13.183Z,33.63
2023-04-09T23:00:44.614Z,33.83
2023-04-09T23:03:16.911Z,33.90
2023-04-09T23:05:48.381Z,32.10
2023-04-09T23:08:19.755Z,34.13
2023-04-09T23:10:51.156Z,28.13
2023-04-09T23:13:22.777Z,33.13
2023-04-09T23:15:54.206Z,27.87
2023-04-09T23:18:25.909Z,30.60
2023-04-09T23:20:57.270Z,29.00
2023-04-09T23:23:28.959Z,31.60
2023-04-09T23:26:00.902Z,37.43
2023-04-09T23:28:32.597Z,29.43
2023-04-09T23:31:04.101Z,32.90
2023-04-09T23:33:35.495Z,34.80
2023-04-09T23:36:07.225Z,30.80
2023-04-09T23:38:40.755Z,29.80
2023-04-09T23:41:13.931Z,30.67
2023-04-09T23:43:45.876Z,30.33
2023-04-09T23:46:17.291Z,31.63
2023-04-09T23:48:48.622Z,30.10
2023-04-09T23:51:20.736Z,30.33
2023-04-09T23:53:52.487Z,30.23
2023-04-09T23:56:25.039Z,37.27
2023-04-09T23:58:56.715Z,31.43
